Time;durP1;ratioP1;P1;durP2;ratioP2;P2;SDS_P1;SDS_P2;PMS_P1;PMS_P2;Temp;Humidity;BMP_temperature;BMP_pressure;BME280_temperature;BME280_humidity;BME280_pressure;Samples;Min_cycle;Max_cycle;Signal;HPM_P1;HPM_P2
2022/05/07 00:02:30;;;;;;;1.30;1.27;;;;;;;;;;4919179;29;20662;-70
2022/05/07 00:04:57;;;;;;;2.10;1.10;;;;;;;;;;4906201;29;20239;-70
2022/05/07 00:07:24;;;;;;;1.23;1.23;;;;;;;;;;4912050;29;20260;-69
2022/05/07 00:09:51;;;;;;;1.97;1.43;;;;;;;;;;4934374;29;20243;-69
2022/05/07 00:12:18;;;;;;;1.57;1.47;;;;;;;;;;4919067;29;20702;-69
2022/05/07 00:14:45;;;;;;;1.53;1.37;;;;;;;;;;4917998;29;20212;-70
2022/05/07 00:20:11;;;;;;;1.40;1.20;;;;;;;;;;4911775;29;20215;-69
2022/05/07 00:22:38;;;;;;;1.20;1.20;;;;;;;;;;4925068;29;20576;-70
2022/05/07 00:25:05;;;;;;;1.13;1.13;;;;;;;;;;4933364;29;20666;-69
2022/05/07 00:27:40;;;;;;;2.20;1.40;;;;;;;;;;4920791;29;20231;-69
2022/05/07 00:30:08;;;;;;;1.23;1.13;;;;;;;;;;4925505;29;20285;-69
2022/05/07 00:32:35;;;;;;;1.20;1.10;;;;;;;;;;4926182;29;20204;-69
2022/05/07 00:35:02;;;;;;;1.17;1.17;;;;;;;;;;4915566;29;20208;-69
2022/05/07 00:37:30;;;;;;;2.43;1.03;;;;;;;;;;4925714;29;20203;-69
2022/05/07 00:39:58;;;;;;;1.53;1.43;;;;;;;;;;4926371;29;20244;-69
2022/05/07 00:42:25;;;;;;;1.40;1.30;;;;;;;;;;4922148;29;20215;-69
2022/05/07 00:44:52;;;;;;;2.50;1.20;;;;;;;;;;4915420;29;20219;-69
2022/05/07 00:47:22;;;;;;;1.30;1.30;;;;;;;;;;4922402;29;20223;-69
2022/05/07 00:49:51;;;;;;;3.67;1.80;;;;;;;;;;4928087;29;20750;-69
2022/05/07 00:52:18;;;;;;;1.40;1.30;;;;;;;;;;4920323;29;20217;-69
2022/05/07 00:54:47;;;;;;;1.17;1.17;;;;;;;;;;4919261;29;20296;-69
2022/05/07 00:57:15;;;;;;;1.57;1.57;;;;;;;;;;4919287;29;20200;-69
2022/05/07 00:59:42;;;;;;;1.20;1.20;;;;;;;;;;4913208;29;20733;-69
2022/05/07 01:02:09;;;;;;;1.40;1.40;;;;;;;;;;4922023;29;20211;-69
2022/05/07 01:04:37;;;;;;;1.50;1.50;;;;;;;;;;4917495;29;20212;-69
2022/05/07 01:07:04;;;;;;;1.93;1.40;;;;;;;;;;4929791;29;20290;-69
2022/05/07 01:09:31;;;;;;;1.23;1.23;;;;;;;;;;4915833;29;20244;-69
2022/05/07 01:12:00;;;;;;;4.87;1.50;;;;;;;;;;4924599;29;20267;-69
2022/05/07 01:14:27;;;;;;;1.33;1.30;;;;;;;;;;4914709;29;20209;-69
2022/05/07 01:16:54;;;;;;;1.27;1.27;;;;;;;;;;4914989;29;20294;-69
2022/05/07 01:19:21;;;;;;;1.80;1.40;;;;;;;;;;4914972;29;20212;-69
2022/05/07 01:21:50;;;;;;;1.40;1.40;;;;;;;;;;4915079;29;20215;-69
2022/05/07 01:24:17;;;;;;;1.57;1.50;;;;;;;;;;4933769;29;20219;-69
2022/05/07 01:26:44;;;;;;;1.30;1.30;;;;;;;;;;4916149;29;20228;-69
2022/05/07 01:29:11;;;;;;;1.97;1.40;;;;;;;;;;4914336;29;20694;-69
2022/05/07 01:31:38;;;;;;;1.73;1.60;;;;;;;;;;4930269;29;20212;-69
2022/05/07 01:34:05;;;;;;;1.60;1.60;;;;;;;;;;4917778;29;20276;-69
2022/05/07 01:36:32;;;;;;;1.97;1.87;;;;;;;;;;4915469;29;20269;-69
2022/05/07 01:39:00;;;;;;;3.67;3.27;;;;;;;;;;4915447;29;20208;-69
2022/05/07 01:41:27;;;;;;;4.33;2.60;;;;;;;;;;4923918;29;20327;-69
2022/05/07 01:43:54;;;;;;;1.67;1.60;;;;;;;;;;4921208;29;20212;-69
2022/05/07 01:49:06;;;;;;;2.27;2.07;;;;;;;;;;4921986;29;20324;-69
2022/05/07 01:51:33;;;;;;;5.93;2.30;;;;;;;;;;4930402;29;20220;-69
2022/05/07 01:54:01;;;;;;;2.90;2.23;;;;;;;;;;4923446;29;20334;-69
2022/05/07 01:56:28;;;;;;;1.57;1.57;;;;;;;;;;4924374;29;20213;-69
2022/05/07 01:58:55;;;;;;;2.30;1.90;;;;;;;;;;4913593;29;20215;-69
2022/05/07 02:01:23;;;;;;;2.13;1.90;;;;;;;;;;4929938;29;20214;-69
2022/05/07 02:03:51;;;;;;;1.87;1.83;;;;;;;;;;4926989;29;20224;-69
2022/05/07 02:06:18;;;;;;;1.97;1.87;;;;;;;;;;4914402;29;20232;-68
2022/05/07 02:08:45;;;;;;;2.20;2.00;;;;;;;;;;4912524;29;20235;-69
2022/05/07 02:11:13;;;;;;;2.13;1.87;;;;;;;;;;4920287;29;20220;-69
2022/05/07 02:13:40;;;;;;;2.70;2.50;;;;;;;;;;4914063;29;20220;-68
2022/05/07 02:16:10;;;;;;;3.90;2.50;;;;;;;;;;4919778;29;20212;-68
2022/05/07 02:18:38;;;;;;;2.40;2.30;;;;;;;;;;4912133;29;20223;-69
2022/05/07 02:21:05;;;;;;;2.10;2.00;;;;;;;;;;4913700;29;20212;-69
2022/05/07 02:23:32;;;;;;;2.33;2.23;;;;;;;;;;4912958;29;20218;-69
2022/05/07 02:26:32;;;;;;;2.00;1.90;;;;;;;;;;4923027;29;20211;-69
2022/05/07 02:29:01;;;;;;;2.20;2.10;;;;;;;;;;4908866;29;20404;-69
2022/05/07 02:31:28;;;;;;;1.90;1.80;;;;;;;;;;4904843;29;20242;-71
2022/05/07 02:33:55;;;;;;;2.00;1.90;;;;;;;;;;4919893;29;20218;-69
2022/05/07 02:36:22;;;;;;;1.73;1.70;;;;;;;;;;4924759;29;20215;-69
2022/05/07 02:38:49;;;;;;;1.77;1.67;;;;;;;;;;4914109;29;20208;-69
2022/05/07 02:44:04;;;;;;;1.90;1.60;;;;;;;;;;4912176;29;20694;-69
2022/05/07 02:46:31;;;;;;;1.40;1.40;;;;;;;;;;4930380;29;20232;-70
2022/05/07 02:48:58;;;;;;;2.00;1.90;;;;;;;;;;4918190;29;20215;-70
2022/05/07 02:51:25;;;;;;;1.93;1.93;;;;;;;;;;4916523;29;20271;-69
2022/05/07 02:53:52;;;;;;;1.80;1.80;;;;;;;;;;4914301;29;20212;-69
2022/05/07 02:56:19;;;;;;;2.13;2.03;;;;;;;;;;4931145;29;20219;-69
2022/05/07 02:58:46;;;;;;;4.37;2.00;;;;;;;;;;4912702;29;20208;-69
2022/05/07 03:01:15;;;;;;;2.30;2.20;;;;;;;;;;4918983;29;20216;-70
2022/05/07 03:03:42;;;;;;;1.90;1.80;;;;;;;;;;4911814;29;20264;-69
2022/05/07 03:06:09;;;;;;;1.20;1.20;;;;;;;;;;4914640;29;20219;-69
2022/05/07 03:08:36;;;;;;;2.43;1.80;;;;;;;;;;4916148;29;20236;-70
2022/05/07 03:11:03;;;;;;;1.43;1.40;;;;;;;;;;4923727;29;20256;-70
2022/05/07 03:13:30;;;;;;;1.33;1.33;;;;;;;;;;4913130;29;20846;-70
2022/05/07 03:15:58;;;;;;;1.60;1.50;;;;;;;;;;4928305;29;20211;-70
2022/05/07 03:18:26;;;;;;;3.10;1.70;;;;;;;;;;4919441;29;20292;-70
2022/05/07 03:20:53;;;;;;;1.43;1.33;;;;;;;;;;4927505;29;20204;-69
2022/05/07 03:23:21;;;;;;;1.60;1.60;;;;;;;;;;4912771;29;20216;-70
2022/05/07 03:25:49;;;;;;;2.53;1.80;;;;;;;;;;4931443;29;20234;-70
2022/05/07 03:28:16;;;;;;;1.73;1.63;;;;;;;;;;4920358;29;20291;-69
2022/05/07 03:30:43;;;;;;;1.60;1.50;;;;;;;;;;4918979;29;20279;-69
2022/05/07 03:33:10;;;;;;;2.00;1.80;;;;;;;;;;4930854;29;20677;-69
2022/05/07 03:35:39;;;;;;;1.60;1.53;;;;;;;;;;4927959;29;20204;-69
2022/05/07 03:38:06;;;;;;;1.80;1.70;;;;;;;;;;4935234;29;20214;-69
2022/05/07 03:40:33;;;;;;;1.97;1.87;;;;;;;;;;4930780;29;20644;-70
2022/05/07 03:43:01;;;;;;;4.93;1.87;;;;;;;;;;4933592;29;20203;-69
2022/05/07 03:45:28;;;;;;;2.87;1.87;;;;;;;;;;4922762;29;20287;-69
2022/05/07 03:47:55;;;;;;;1.63;1.53;;;;;;;;;;4918718;29;20255;-68
2022/05/07 03:50:22;;;;;;;1.70;1.63;;;;;;;;;;4931122;29;20218;-69
2022/05/07 03:55:41;;;;;;;1.73;1.47;;;;;;;;;;4920768;29;20209;-69
2022/05/07 03:58:10;;;;;;;1.73;1.67;;;;;;;;;;4934126;29;20215;-69
2022/05/07 04:00:37;;;;;;;1.60;1.50;;;;;;;;;;4918147;29;20311;-69
2022/05/07 04:03:05;;;;;;;2.43;1.60;;;;;;;;;;4925541;29;20546;-69
2022/05/07 04:05:32;;;;;;;1.30;1.30;;;;;;;;;;4917712;29;20220;-69
2022/05/07 04:08:00;;;;;;;1.63;1.53;;;;;;;;;;4918008;29;20620;-69
2022/05/07 04:10:27;;;;;;;2.13;1.60;;;;;;;;;;4915538;29;20311;-70
2022/05/07 04:12:54;;;;;;;1.33;1.33;;;;;;;;;;4924170;29;20222;-69
2022/05/07 04:15:21;;;;;;;1.87;1.77;;;;;;;;;;4918226;29;20216;-69
2022/05/07 04:17:49;;;;;;;2.13;1.97;;;;;;;;;;4918269;29;20215;-69
2022/05/07 04:20:17;;;;;;;1.80;1.80;;;;;;;;;;4917929;29;20216;-69
2022/05/07 04:22:44;;;;;;;4.60;1.90;;;;;;;;;;4917603;29;20287;-69
2022/05/07 04:25:13;;;;;;;5.40;1.90;;;;;;;;;;4917799;29;20204;-69
2022/05/07 04:27:40;;;;;;;2.40;2.27;;;;;;;;;;4917350;29;20321;-69
2022/05/07 04:30:09;;;;;;;3.43;1.97;;;;;;;;;;4918438;29;20219;-69
2022/05/07 04:32:36;;;;;;;2.00;1.80;;;;;;;;;;4928547;29;20304;-69
2022/05/07 04:35:03;;;;;;;2.50;2.30;;;;;;;;;;4933591;29;20235;-69
2022/05/07 04:37:30;;;;;;;1.90;1.73;;;;;;;;;;4917465;29;20215;-70
2022/05/07 04:39:57;;;;;;;2.00;1.90;;;;;;;;;;4931639;29;20214;-69
2022/05/07 04:42:25;;;;;;;4.23;1.97;;;;;;;;;;4921719;29;20224;-69
2022/05/07 04:44:52;;;;;;;2.10;2.00;;;;;;;;;;4930585;29;20243;-69
2022/05/07 04:47:19;;;;;;;2.20;2.10;;;;;;;;;;4921520;29;20248;-67
2022/05/07 04:49:46;;;;;;;2.80;1.90;;;;;;;;;;4926542;29;20255;-67
2022/05/07 04:52:13;;;;;;;2.33;2.23;;;;;;;;;;4914879;29;20208;-67
2022/05/07 04:54:41;;;;;;;2.13;2.03;;;;;;;;;;4922683;29;20758;-67
2022/05/07 04:57:08;;;;;;;2.57;2.37;;;;;;;;;;4915241;29;20236;-67
2022/05/07 04:59:37;;;;;;;2.13;1.97;;;;;;;;;;4917590;29;20208;-67
2022/05/07 05:02:04;;;;;;;3.33;2.30;;;;;;;;;;4913275;29;20647;-67
2022/05/07 05:04:31;;;;;;;2.37;2.27;;;;;;;;;;4914892;29;20216;-69
2022/05/07 05:06:58;;;;;;;2.80;2.60;;;;;;;;;;4914589;29;20275;-67
2022/05/07 05:09:25;;;;;;;6.10;2.63;;;;;;;;;;4915505;29;20236;-68
2022/05/07 05:11:53;;;;;;;2.80;2.60;;;;;;;;;;4914925;29;20581;-70
2022/05/07 05:17:06;;;;;;;2.20;2.10;;;;;;;;;;4930306;29;20782;-68
2022/05/07 05:19:33;;;;;;;2.43;2.23;;;;;;;;;;4916580;29;20212;-68
2022/05/07 05:22:00;;;;;;;2.23;2.13;;;;;;;;;;4914160;29;20220;-69
2022/05/07 05:24:27;;;;;;;2.53;2.40;;;;;;;;;;4921081;29;20211;-68
2022/05/07 05:26:54;;;;;;;2.50;2.30;;;;;;;;;;4933472;29;20227;-68
2022/05/07 05:29:23;;;;;;;2.20;2.10;;;;;;;;;;4914432;29;20239;-68
2022/05/07 05:31:50;;;;;;;2.40;2.30;;;;;;;;;;4914523;29;20683;-68
2022/05/07 05:34:18;;;;;;;2.47;2.37;;;;;;;;;;4916416;29;20211;-68
2022/05/07 05:36:45;;;;;;;2.80;2.37;;;;;;;;;;4933390;29;20216;-68
2022/05/07 05:39:12;;;;;;;3.70;2.83;;;;;;;;;;4915627;29;20670;-68
2022/05/07 05:41:41;;;;;;;2.63;2.50;;;;;;;;;;4914115;29;20695;-67
2022/05/07 05:44:08;;;;;;;2.53;2.43;;;;;;;;;;4913958;29;20236;-67
2022/05/07 05:46:35;;;;;;;2.07;2.03;;;;;;;;;;4915445;29;20230;-68
2022/05/07 05:49:02;;;;;;;2.40;2.20;;;;;;;;;;4913376;29;20243;-68
2022/05/07 05:51:35;;;;;;;2.77;2.67;;;;;;;;;;4914105;29;20224;-68
2022/05/07 05:54:02;;;;;;;4.35;2.67;;;;;;;;;;4911128;29;20293;-68
2022/05/07 05:56:29;;;;;;;2.67;2.20;;;;;;;;;;4928565;29;20765;-68
2022/05/07 05:58:56;;;;;;;3.23;2.90;;;;;;;;;;4925530;29;20208;-67
2022/05/07 06:01:24;;;;;;;3.13;2.87;;;;;;;;;;4930319;29;20227;-67
2022/05/07 06:03:51;;;;;;;4.83;2.83;;;;;;;;;;4912945;29;20219;-67
2022/05/07 06:06:18;;;;;;;3.00;2.80;;;;;;;;;;4924081;29;20239;-68
2022/05/07 06:08:47;;;;;;;3.33;3.10;;;;;;;;;;4918145;29;22100;-67
2022/05/07 06:11:14;;;;;;;2.85;2.67;;;;;;;;;;4922633;29;20299;-67
2022/05/07 06:13:43;;;;;;;3.17;2.65;;;;;;;;;;4912950;29;20271;-67
2022/05/07 06:16:10;;;;;;;2.80;2.70;;;;;;;;;;4920018;29;20216;-61
2022/05/07 06:18:37;;;;;;;8.85;2.60;;;;;;;;;;4916834;29;20196;-62
2022/05/07 06:21:04;;;;;;;3.10;2.90;;;;;;;;;;4914520;29;20583;-60
2022/05/07 06:23:31;;;;;;;3.13;2.80;;;;;;;;;;4913634;29;20227;-60
2022/05/07 06:28:44;;;;;;;2.90;2.70;;;;;;;;;;4928991;29;20325;-67
2022/05/07 06:31:11;;;;;;;4.28;3.00;;;;;;;;;;4920745;29;20212;-68
2022/05/07 06:33:39;;;;;;;2.83;2.63;;;;;;;;;;4915068;29;20215;-68
2022/05/07 06:36:07;;;;;;;3.45;2.70;;;;;;;;;;4914875;29;20761;-67
2022/05/07 06:38:34;;;;;;;2.67;2.47;;;;;;;;;;4915580;29;20231;-60
2022/05/07 06:41:03;;;;;;;2.55;2.40;;;;;;;;;;4916953;29;20738;-60
2022/05/07 06:43:30;;;;;;;2.58;2.47;;;;;;;;;;4922828;29;20641;-60
2022/05/07 06:45:57;;;;;;;3.13;2.85;;;;;;;;;;4930974;29;20302;-65
2022/05/07 06:48:24;;;;;;;2.47;2.38;;;;;;;;;;4925317;29;20319;-63
2022/05/07 06:50:51;;;;;;;2.17;2.08;;;;;;;;;;4929141;29;20211;-63
2022/05/07 06:53:19;;;;;;;2.08;2.08;;;;;;;;;;4913552;29;20219;-63
2022/05/07 06:55:59;;;;;;;2.92;2.30;;;;;;;;;;4929010;29;20219;-64
2022/05/07 06:58:29;;;;;;;2.10;2.00;;;;;;;;;;4925897;29;20208;-63
2022/05/07 07:00:57;;;;;;;2.10;2.00;;;;;;;;;;4930621;29;20575;-63
2022/05/07 07:03:24;;;;;;;2.00;1.90;;;;;;;;;;4904841;29;20300;-63
2022/05/07 07:05:52;;;;;;;1.50;1.50;;;;;;;;;;4930652;29;20220;-63
2022/05/07 07:08:20;;;;;;;3.15;1.65;;;;;;;;;;4914434;29;20287;-63
2022/05/07 07:10:47;;;;;;;1.75;1.65;;;;;;;;;;4911359;29;21014;-64
2022/05/07 07:13:16;;;;;;;1.70;1.60;;;;;;;;;;4910902;29;20204;-63
2022/05/07 07:15:44;;;;;;;1.45;1.42;;;;;;;;;;4912635;29;20212;-63
2022/05/07 07:18:12;;;;;;;1.40;1.40;;;;;;;;;;4913825;29;20311;-63
2022/05/07 07:20:40;;;;;;;1.30;1.30;;;;;;;;;;4919673;29;20271;-63
2022/05/07 07:23:08;;;;;;;1.40;1.40;;;;;;;;;;4914177;29;20216;-63
2022/05/07 07:25:35;;;;;;;1.40;1.40;;;;;;;;;;4926999;29;20215;-63
2022/05/07 07:28:02;;;;;;;1.48;1.17;;;;;;;;;;4915967;29;20609;-63
2022/05/07 07:30:29;;;;;;;1.38;1.38;;;;;;;;;;4927398;29;20208;-63
2022/05/07 07:32:58;;;;;;;1.95;1.30;;;;;;;;;;4913371;29;20208;-63
2022/05/07 07:35:25;;;;;;;1.60;1.60;;;;;;;;;;4912509;29;20941;-63
2022/05/07 07:37:52;;;;;;;1.60;1.50;;;;;;;;;;4913299;29;20216;-63
2022/05/07 07:40:19;;;;;;;2.15;1.55;;;;;;;;;;4916730;29;20211;-63
2022/05/07 07:42:46;;;;;;;1.67;1.58;;;;;;;;;;4920775;29;20224;-63
2022/05/07 07:48:02;;;;;;;1.45;1.45;;;;;;;;;;4915328;29;20886;-63
2022/05/07 07:50:30;;;;;;;2.88;1.60;;;;;;;;;;4922536;29;20674;-63
2022/05/07 07:52:58;;;;;;;1.48;1.48;;;;;;;;;;4928278;29;20670;-63
2022/05/07 07:55:25;;;;;;;1.60;1.60;;;;;;;;;;4915098;29;20250;-62
2022/05/07 07:57:54;;;;;;;1.30;1.30;;;;;;;;;;4916819;29;20219;-62
2022/05/07 08:00:21;;;;;;;1.58;1.30;;;;;;;;;;4925675;29;20220;-62
2022/05/07 08:02:48;;;;;;;1.20;1.20;;;;;;;;;;4931246;29;20583;-63
2022/05/07 08:05:17;;;;;;;1.40;1.40;;;;;;;;;;4915828;29;20761;-63
2022/05/07 08:16:17;;;;;;;1.50;1.50;;;;;;;;;;4910730;29;20212;-63
2022/05/07 08:18:44;;;;;;;1.48;1.38;;;;;;;;;;4920422;29;20208;-63
2022/05/07 08:21:13;;;;;;;1.50;1.50;;;;;;;;;;4921315;29;20212;-63
2022/05/07 08:23:41;;;;;;;1.67;1.67;;;;;;;;;;4924598;29;20212;-62
2022/05/07 08:26:09;;;;;;;2.40;1.40;;;;;;;;;;4922282;29;20259;-63
2022/05/07 08:28:37;;;;;;;1.38;1.38;;;;;;;;;;4918427;29;20334;-62
2022/05/07 08:31:04;;;;;;;2.67;1.50;;;;;;;;;;4919278;29;20281;-62
2022/05/07 08:33:32;;;;;;;1.40;1.30;;;;;;;;;;4924429;29;20223;-63
2022/05/07 08:35:59;;;;;;;1.55;1.55;;;;;;;;;;4923907;29;20222;-63
2022/05/07 08:38:28;;;;;;;1.33;1.25;;;;;;;;;;4923641;29;20633;-66
2022/05/07 08:40:55;;;;;;;1.48;1.48;;;;;;;;;;4922619;29;20302;-65
2022/05/07 08:43:22;;;;;;;1.20;1.20;;;;;;;;;;4925019;29;20701;-63
2022/05/07 08:45:49;;;;;;;1.25;1.15;;;;;;;;;;4924214;29;20208;-60
2022/05/07 08:48:16;;;;;;;1.15;1.15;;;;;;;;;;4921190;29;20246;-64
2022/05/07 08:50:44;;;;;;;3.03;1.25;;;;;;;;;;4923957;29;20703;-60
2022/05/07 08:53:11;;;;;;;1.40;1.30;;;;;;;;;;4925134;29;20642;-61
2022/05/07 08:55:39;;;;;;;2.00;1.40;;;;;;;;;;4924846;29;20204;-62
2022/05/07 08:58:06;;;;;;;1.15;1.15;;;;;;;;;;4921470;29;20212;-64
2022/05/07 09:00:34;;;;;;;1.20;1.20;;;;;;;;;;4925681;29;20212;-60
2022/05/07 09:03:02;;;;;;;1.38;1.02;;;;;;;;;;4922384;29;20701;-64
2022/05/07 09:05:33;;;;;;;1.77;1.10;;;;;;;;;;4921853;29;20675;-62
2022/05/07 09:08:01;;;;;;;1.15;1.13;;;;;;;;;;4923565;29;20634;-64
2022/05/07 09:10:28;;;;;;;1.10;1.10;;;;;;;;;;4924466;29;20239;-64
2022/05/07 09:13:00;;;;;;;0.95;0.95;;;;;;;;;;4921678;29;20207;-64
2022/05/07 09:15:27;;;;;;;1.00;1.00;;;;;;;;;;4921513;29;20294;-64
2022/05/07 09:18:01;;;;;;;1.00;1.00;;;;;;;;;;4920184;29;20220;-63
2022/05/07 09:20:29;;;;;;;0.80;0.80;;;;;;;;;;4918356;29;20208;-64
2022/05/07 09:22:56;;;;;;;0.75;0.70;;;;;;;;;;4921408;29;20216;-63
2022/05/07 09:25:24;;;;;;;0.90;0.90;;;;;;;;;;4923910;29;20211;-64
2022/05/07 09:27:56;;;;;;;1.08;1.05;;;;;;;;;;4923153;29;20218;-63
2022/05/07 09:30:25;;;;;;;0.98;0.85;;;;;;;;;;4922525;29;20228;-64
2022/05/07 09:32:53;;;;;;;1.35;1.10;;;;;;;;;;4920698;29;20204;-63
2022/05/07 09:38:06;;;;;;;1.58;0.90;;;;;;;;;;4922002;29;20211;-63
2022/05/07 09:40:38;;;;;;;0.75;0.75;;;;;;;;;;4922576;29;20204;-63
2022/05/07 09:43:05;;;;;;;1.45;0.80;;;;;;;;;;4921798;29;20234;-63
2022/05/07 09:45:34;;;;;;;0.82;0.82;;;;;;;;;;4922745;29;20211;-64
2022/05/07 09:48:01;;;;;;;1.20;1.10;;;;;;;;;;4922936;29;20215;-64
2022/05/07 09:58:40;;;;;;;2.25;1.02;;;;;;;;;;4922033;29;20222;-64
2022/05/07 10:01:25;;;;;;;1.05;0.98;;;;;;;;;;4921087;29;20675;-64
2022/05/07 10:03:55;;;;;;;1.20;1.20;;;;;;;;;;4922820;29;20207;-64
2022/05/07 10:06:34;;;;;;;1.73;1.15;;;;;;;;;;4923172;29;20220;-64
2022/05/07 10:09:08;;;;;;;1.60;1.25;;;;;;;;;;4920808;29;20240;-64
2022/05/07 10:11:35;;;;;;;1.73;1.63;;;;;;;;;;4923047;29;20235;-64
2022/05/07 10:14:02;;;;;;;1.58;1.10;;;;;;;;;;4920962;29;20209;-64
2022/05/07 10:16:31;;;;;;;1.27;1.27;;;;;;;;;;4923362;29;20223;-65
2022/05/07 10:19:09;;;;;;;1.30;1.30;;;;;;;;;;4917785;29;20210;-65
2022/05/07 10:21:37;;;;;;;1.60;1.60;;;;;;;;;;4920261;29;20299;-65
2022/05/07 10:24:05;;;;;;;1.23;1.23;;;;;;;;;;4918978;29;20228;-65
2022/05/07 10:26:39;;;;;;;1.50;1.20;;;;;;;;;;4921737;29;20212;-64
2022/05/07 10:29:07;;;;;;;1.52;1.20;;;;;;;;;;4918088;29;20287;-65
2022/05/07 10:31:44;;;;;;;1.17;1.10;;;;;;;;;;4921627;29;20243;-65
2022/05/07 10:34:11;;;;;;;1.45;1.35;;;;;;;;;;4919563;29;20303;-64
2022/05/07 10:36:38;;;;;;;2.47;1.10;;;;;;;;;;4919635;29;20770;-65
2022/05/07 10:39:10;;;;;;;1.35;1.08;;;;;;;;;;4921486;29;20231;-63
2022/05/07 10:41:47;;;;;;;0.90;0.90;;;;;;;;;;4921690;29;20687;-63
2022/05/07 10:44:19;;;;;;;1.55;1.35;;;;;;;;;;4918067;29;20212;-64
2022/05/07 10:46:48;;;;;;;1.50;1.27;;;;;;;;;;4919996;29;20658;-64
2022/05/07 10:49:18;;;;;;;1.77;1.67;;;;;;;;;;4916551;29;20232;-65
2022/05/07 10:51:51;;;;;;;1.30;1.27;;;;;;;;;;4920289;29;20211;-64
2022/05/07 10:54:19;;;;;;;1.77;1.40;;;;;;;;;;4917865;29;20215;-64
2022/05/07 10:56:47;;;;;;;1.17;1.17;;;;;;;;;;4919950;29;20621;-64
2022/05/07 10:59:15;;;;;;;2.17;1.40;;;;;;;;;;4918097;29;20693;-65
2022/05/07 11:01:42;;;;;;;1.35;1.35;;;;;;;;;;4922759;29;20216;-64
2022/05/07 11:04:13;;;;;;;1.85;1.75;;;;;;;;;;4922257;29;20211;-65
2022/05/07 11:06:47;;;;;;;1.90;1.80;;;;;;;;;;4918360;29;20217;-64
2022/05/07 11:09:15;;;;;;;1.42;1.42;;;;;;;;;;4920399;29;20238;-65
2022/05/07 11:11:44;;;;;;;1.92;1.83;;;;;;;;;;4920716;29;20208;-65
2022/05/07 11:14:12;;;;;;;1.70;1.70;;;;;;;;;;4917045;29;20733;-64
2022/05/07 11:16:43;;;;;;;1.98;1.58;;;;;;;;;;4920161;29;20208;-65
2022/05/07 11:19:11;;;;;;;2.00;1.90;;;;;;;;;;4918674;29;20345;-64
2022/05/07 11:21:39;;;;;;;1.80;1.70;;;;;;;;;;4919754;29;20204;-64
2022/05/07 11:24:07;;;;;;;2.22;2.13;;;;;;;;;;4920052;29;20295;-65
2022/05/07 11:26:34;;;;;;;2.17;2.08;;;;;;;;;;4921502;29;20771;-65
2022/05/07 11:29:01;;;;;;;1.50;1.50;;;;;;;;;;4920495;29;20224;-65
2022/05/07 11:31:29;;;;;;;2.42;1.90;;;;;;;;;;4919717;29;20203;-65
2022/05/07 11:34:02;;;;;;;1.95;1.95;;;;;;;;;;4914974;29;20679;-65
2022/05/07 11:36:31;;;;;;;1.90;1.80;;;;;;;;;;4919316;29;20235;-64
2022/05/07 11:38:59;;;;;;;2.80;2.58;;;;;;;;;;4920875;29;20211;-65
2022/05/07 11:41:26;;;;;;;1.98;1.92;;;;;;;;;;4920621;29;20663;-64
2022/05/07 11:46:48;;;;;;;1.50;1.50;;;;;;;;;;4917574;29;20861;-65
2022/05/07 11:49:16;;;;;;;2.35;2.25;;;;;;;;;;4918391;29;20342;-63
2022/05/07 11:51:44;;;;;;;1.80;1.70;;;;;;;;;;4919746;29;20205;-64
2022/05/07 11:54:11;;;;;;;2.13;1.88;;;;;;;;;;4916909;29;20208;-65
2022/05/07 11:56:47;;;;;;;2.08;1.98;;;;;;;;;;4922236;29;20672;-64
2022/05/07 11:59:15;;;;;;;1.83;1.83;;;;;;;;;;4923662;29;20662;-65
2022/05/07 12:01:42;;;;;;;2.00;2.00;;;;;;;;;;4920516;29;20307;-65
2022/05/07 12:04:09;;;;;;;2.28;1.90;;;;;;;;;;4915447;29;20223;-65
2022/05/07 12:06:37;;;;;;;1.73;1.73;;;;;;;;;;4914482;29;20213;-64
2022/05/07 12:09:13;;;;;;;1.90;1.80;;;;;;;;;;4914257;29;20255;-64
2022/05/07 12:11:41;;;;;;;3.42;2.08;;;;;;;;;;4918036;29;20240;-65
2022/05/07 12:14:08;;;;;;;2.15;2.03;;;;;;;;;;4914514;29;20216;-64
2022/05/07 12:19:30;;;;;;;2.42;2.20;;;;;;;;;;4914136;29;20211;-65
2022/05/07 12:30:30;;;;;;;2.10;2.00;;;;;;;;;;4841528;29;20326;-64
2022/05/07 12:32:57;;;;;;;1.95;1.85;;;;;;;;;;4853953;29;20211;-63
2022/05/07 12:35:24;;;;;;;1.90;1.80;;;;;;;;;;4887184;29;20611;-65
2022/05/07 12:37:51;;;;;;;1.98;1.88;;;;;;;;;;4921737;29;20295;-65
2022/05/07 12:40:20;;;;;;;1.98;1.83;;;;;;;;;;4914383;29;20219;-65
2022/05/07 12:42:48;;;;;;;1.80;1.80;;;;;;;;;;4915132;29;20215;-66
2022/05/07 12:45:15;;;;;;;1.77;1.73;;;;;;;;;;4919626;29;20357;-63
2022/05/07 12:47:42;;;;;;;2.00;1.98;;;;;;;;;;4916505;29;20251;-63
2022/05/07 12:50:10;;;;;;;3.70;1.80;;;;;;;;;;4932930;29;20239;-63
2022/05/07 12:52:37;;;;;;;1.77;1.67;;;;;;;;;;4930126;29;20207;-63
2022/05/07 12:55:04;;;;;;;1.80;1.80;;;;;;;;;;4932705;29;20222;-62
2022/05/07 12:57:32;;;;;;;4.82;2.00;;;;;;;;;;4915178;29;20208;-64
2022/05/07 12:59:59;;;;;;;1.85;1.75;;;;;;;;;;4921952;29;20259;-62
2022/05/07 13:02:26;;;;;;;2.80;2.25;;;;;;;;;;4914476;29;20213;-63
2022/05/07 13:04:53;;;;;;;2.08;1.80;;;;;;;;;;4913529;29;20220;-63
2022/05/07 13:07:20;;;;;;;2.17;2.08;;;;;;;;;;4912097;29;20671;-63
2022/05/07 13:09:47;;;;;;;4.00;1.85;;;;;;;;;;4914426;29;20728;-63
2022/05/07 13:12:16;;;;;;;1.85;1.83;;;;;;;;;;4913188;29;20279;-63
2022/05/07 13:14:44;;;;;;;1.52;1.52;;;;;;;;;;4919412;29;20219;-63
2022/05/07 13:17:11;;;;;;;2.10;2.00;;;;;;;;;;4917077;29;20209;-63
2022/05/07 13:19:38;;;;;;;1.95;1.85;;;;;;;;;;4913629;29;20263;-63
2022/05/07 13:22:06;;;;;;;1.50;1.50;;;;;;;;;;4913656;29;20307;-63
2022/05/07 13:24:33;;;;;;;1.63;1.52;;;;;;;;;;4913450;29;20983;-63
2022/05/07 13:27:00;;;;;;;1.70;1.52;;;;;;;;;;4913041;29;20215;-65
2022/05/07 13:29:28;;;;;;;1.88;1.75;;;;;;;;;;4914002;29;20204;-63
2022/05/07 13:31:58;;;;;;;1.73;1.63;;;;;;;;;;4912786;29;20216;-63
2022/05/07 13:34:25;;;;;;;1.63;1.15;;;;;;;;;;4929473;29;20212;-63
2022/05/07 13:36:52;;;;;;;2.30;1.30;;;;;;;;;;4919827;29;20656;-63
2022/05/07 13:39:19;;;;;;;1.67;1.67;;;;;;;;;;4913595;29;20220;-63
2022/05/07 13:41:46;;;;;;;1.30;1.20;;;;;;;;;;4923470;29;20223;-63
2022/05/07 13:44:13;;;;;;;1.02;1.02;;;;;;;;;;4916181;29;20219;-63
2022/05/07 13:46:41;;;;;;;1.33;1.00;;;;;;;;;;4915687;29;20259;-63
2022/05/07 13:49:09;;;;;;;0.90;0.90;;;;;;;;;;4925887;29;20223;-63
2022/05/07 13:51:36;;;;;;;0.95;0.95;;;;;;;;;;4912910;29;20596;-64
2022/05/07 13:54:03;;;;;;;1.67;0.80;;;;;;;;;;4912494;29;20216;-63
2022/05/07 13:56:31;;;;;;;0.80;0.80;;;;;;;;;;4912135;29;20264;-63
2022/05/07 13:58:58;;;;;;;1.10;1.00;;;;;;;;;;4912288;29;20897;-64
2022/05/07 14:01:25;;;;;;;1.60;1.00;;;;;;;;;;4912361;29;20660;-64
2022/05/07 14:03:52;;;;;;;1.58;1.10;;;;;;;;;;4911763;29;20671;-63
2022/05/07 14:06:22;;;;;;;1.20;1.00;;;;;;;;;;4912746;29;20204;-63
2022/05/07 14:08:50;;;;;;;1.17;1.13;;;;;;;;;;4911067;29;20232;-64
2022/05/07 14:11:17;;;;;;;1.20;1.10;;;;;;;;;;4908408;29;20277;-60
2022/05/07 14:13:44;;;;;;;0.95;0.93;;;;;;;;;;4907756;29;20683;-60
2022/05/07 14:16:12;;;;;;;0.80;0.80;;;;;;;;;;4907495;29;20227;-61
2022/05/07 14:18:39;;;;;;;0.77;0.77;;;;;;;;;;4906728;29;20312;-61
2022/05/07 14:21:06;;;;;;;0.70;0.70;;;;;;;;;;4926512;29;20282;-61
2022/05/07 14:23:34;;;;;;;0.80;0.80;;;;;;;;;;4907922;29;20224;-59
2022/05/07 14:26:02;;;;;;;0.75;0.75;;;;;;;;;;4907638;29;20236;-60
2022/05/07 14:28:30;;;;;;;0.77;0.77;;;;;;;;;;4907874;29;20621;-61
2022/05/07 14:30:58;;;;;;;1.88;0.85;;;;;;;;;;4907661;29;20240;-61
2022/05/07 14:33:25;;;;;;;1.98;0.80;;;;;;;;;;4905441;29;20307;-60
2022/05/07 14:35:53;;;;;;;1.42;0.80;;;;;;;;;;4907437;29;20227;-61
2022/05/07 14:38:20;;;;;;;1.27;0.95;;;;;;;;;;4907488;29;20921;-61
2022/05/07 14:40:49;;;;;;;1.15;1.15;;;;;;;;;;4906720;29;20216;-61
2022/05/07 14:43:16;;;;;;;0.90;0.90;;;;;;;;;;4907276;29;20252;-61
2022/05/07 14:45:43;;;;;;;0.80;0.80;;;;;;;;;;4907058;29;20681;-61
2022/05/07 14:48:11;;;;;;;0.80;0.80;;;;;;;;;;4908280;29;20216;-63
2022/05/07 14:50:38;;;;;;;1.38;0.88;;;;;;;;;;4904474;29;21018;-60
2022/05/07 14:53:06;;;;;;;1.42;0.60;;;;;;;;;;4906266;29;20762;-61
2022/05/07 14:55:33;;;;;;;0.70;0.70;;;;;;;;;;4908627;29;20292;-61
2022/05/07 14:58:02;;;;;;;0.80;0.80;;;;;;;;;;4908157;29;20217;-62
2022/05/07 15:00:29;;;;;;;0.85;0.82;;;;;;;;;;4908254;29;20298;-62
2022/05/07 15:02:56;;;;;;;1.80;0.85;;;;;;;;;;4908200;29;20750;-63
2022/05/07 15:05:23;;;;;;;0.85;0.75;;;;;;;;;;4908277;29;20287;-62
2022/05/07 15:07:50;;;;;;;1.00;1.00;;;;;;;;;;4907616;29;20235;-65
2022/05/07 15:13:04;;;;;;;0.82;0.82;;;;;;;;;;4906100;29;20215;-62
2022/05/07 15:15:31;;;;;;;0.68;0.68;;;;;;;;;;4905771;29;20578;-62
2022/05/07 15:17:58;;;;;;;0.80;0.80;;;;;;;;;;4907522;29;20216;-64
2022/05/07 15:20:25;;;;;;;0.80;0.80;;;;;;;;;;4907565;29;20279;-62
2022/05/07 15:22:52;;;;;;;0.75;0.75;;;;;;;;;;4907285;29;20219;-62
2022/05/07 15:25:19;;;;;;;1.00;1.00;;;;;;;;;;4907804;29;20220;-62
2022/05/07 15:27:47;;;;;;;0.80;0.80;;;;;;;;;;4907607;29;20208;-62
2022/05/07 15:30:16;;;;;;;1.95;1.00;;;;;;;;;;4906570;29;20213;-62
2022/05/07 15:38:14;;;;;;;2.83;0.70;;;;;;;;;;4926865;29;20210;-63
2022/05/07 15:40:41;;;;;;;0.70;0.70;;;;;;;;;;4920147;29;20205;-65
2022/05/07 15:43:08;;;;;;;0.90;0.90;;;;;;;;;;4909652;29;20212;-65
2022/05/07 15:45:38;;;;;;;0.70;0.70;;;;;;;;;;4914025;29;20208;-64
2022/05/07 15:48:05;;;;;;;0.98;0.98;;;;;;;;;;4907661;29;20655;-63
2022/05/07 15:50:32;;;;;;;0.68;0.68;;;;;;;;;;4915172;29;20260;-63